Time;durP1;ratioP1;P1;durP2;ratioP2;P2;SDS_P1;SDS_P2;PMS_P1;PMS_P2;Temp;Humidity;BMP_temperature;BMP_pressure;BME280_temperature;BME280_humidity;BME280_pressure;Samples;Min_cycle;Max_cycle;Signal;HPM_P1;HPM_P2
2021/01/20 00:01:39;;;;;;;5.43;4.33;;;6.60;99.90;;;;;;4997611;28;20188;-81
2021/01/20 00:04:05;;;;;;;6.00;4.20;;;6.70;99.90;;;;;;4998658;28;20637;-80
2021/01/20 00:06:30;;;;;;;7.40;5.10;;;6.70;99.90;;;;;;4998800;28;20582;-80
2021/01/20 00:08:56;;;;;;;8.83;6.03;;;6.70;99.90;;;;;;4997468;28;20185;-81
2021/01/20 00:11:25;;;;;;;8.97;5.07;;;6.60;99.90;;;;;;4997661;28;20180;-83
2021/01/20 00:13:52;;;;;;;9.07;4.70;;;6.70;99.90;;;;;;4998281;28;20182;-81
2021/01/20 00:16:18;;;;;;;8.77;4.53;;;6.70;99.90;;;;;;4981196;28;20200;-83
2021/01/20 00:18:43;;;;;;;9.13;5.13;;;6.70;99.90;;;;;;4981396;28;20587;-80
2021/01/20 00:21:09;;;;;;;9.73;5.07;;;6.70;99.90;;;;;;4997825;28;20343;-81
2021/01/20 00:23:34;;;;;;;5.83;4.67;;;6.70;99.90;;;;;;4998085;28;20213;-80
2021/01/20 00:26:00;;;;;;;7.63;4.43;;;6.70;99.90;;;;;;4997891;28;20246;-81
2021/01/20 00:28:26;;;;;;;7.20;4.43;;;6.70;99.90;;;;;;4997489;28;20184;-80
2021/01/20 00:30:51;;;;;;;7.73;3.93;;;6.80;99.90;;;;;;4981007;28;20177;-80
2021/01/20 00:33:17;;;;;;;10.77;4.57;;;6.80;99.90;;;;;;4996997;28;20216;-80
2021/01/20 00:35:42;;;;;;;5.83;3.83;;;6.80;99.90;;;;;;4997502;28;20200;-81
2021/01/20 00:38:08;;;;;;;6.27;4.10;;;6.80;99.90;;;;;;4997498;28;20622;-81
2021/01/20 00:40:33;;;;;;;9.17;4.17;;;6.80;99.90;;;;;;4997530;28;20702;-81
2021/01/20 00:42:59;;;;;;;7.43;3.73;;;6.80;99.90;;;;;;4997183;28;20236;-80
2021/01/20 00:45:24;;;;;;;9.17;4.07;;;6.80;99.90;;;;;;4996221;28;20177;-83
2021/01/20 00:47:50;;;;;;;5.20;3.43;;;6.80;99.90;;;;;;4995830;28;20188;-81
2021/01/20 00:50:15;;;;;;;10.40;3.90;;;6.80;99.90;;;;;;4996700;28;20558;-80
2021/01/20 00:52:41;;;;;;;6.43;3.90;;;6.80;99.90;;;;;;4996323;28;20188;-80
2021/01/20 00:55:08;;;;;;;6.00;3.33;;;6.80;99.90;;;;;;4997167;28;20206;-80
2021/01/20 00:57:33;;;;;;;8.60;3.50;;;6.80;99.90;;;;;;4996336;28;20607;-80
2021/01/20 00:59:59;;;;;;;6.30;3.33;;;6.70;99.90;;;;;;4996264;28;20168;-82
2021/01/20 01:02:24;;;;;;;8.83;3.23;;;6.70;99.90;;;;;;4996124;28;20311;-80
2021/01/20 01:04:50;;;;;;;4.27;2.70;;;6.70;99.90;;;;;;4995988;28;20212;-80
2021/01/20 01:07:15;;;;;;;5.33;2.60;;;6.70;99.90;;;;;;4995440;28;20215;-81
2021/01/20 01:09:41;;;;;;;6.27;2.43;;;6.70;99.90;;;;;;4996009;28;20179;-81
2021/01/20 01:12:07;;;;;;;5.60;2.97;;;6.70;99.90;;;;;;5011046;28;20632;-80
2021/01/20 01:14:32;;;;;;;6.13;2.90;;;6.70;99.90;;;;;;4996068;28;20223;-80
2021/01/20 01:16:58;;;;;;;7.20;2.90;;;6.70;99.90;;;;;;4995977;28;20554;-82
2021/01/20 01:19:23;;;;;;;6.37;2.87;;;6.70;99.90;;;;;;4996345;28;20658;-81
2021/01/20 01:21:49;;;;;;;3.77;1.90;;;6.70;99.90;;;;;;4995734;28;20242;-80
2021/01/20 01:24:15;;;;;;;6.47;3.00;;;6.70;99.90;;;;;;4993901;28;20177;-80
2021/01/20 01:26:41;;;;;;;3.90;2.37;;;6.80;99.90;;;;;;4992796;28;20227;-79
2021/01/20 01:29:06;;;;;;;6.43;2.97;;;6.70;99.90;;;;;;4992490;28;20185;-79
2021/01/20 01:31:32;;;;;;;5.53;2.87;;;6.70;99.90;;;;;;4994810;28;20230;-79
2021/01/20 01:33:57;;;;;;;3.60;3.00;;;6.70;99.90;;;;;;4995862;28;20203;-83
2021/01/20 01:36:23;;;;;;;6.00;3.20;;;6.70;99.90;;;;;;4995748;28;20212;-78
2021/01/20 01:38:48;;;;;;;5.17;2.63;;;6.70;99.90;;;;;;4996628;28;20176;-81
2021/01/20 01:41:14;;;;;;;5.20;3.30;;;6.70;99.90;;;;;;4997514;28;20274;-81
2021/01/20 01:43:39;;;;;;;8.47;3.03;;;6.70;99.90;;;;;;4995189;28;20212;-82
2021/01/20 01:46:05;;;;;;;6.17;2.90;;;6.70;99.90;;;;;;4995676;28;20737;-80
2021/01/20 01:48:31;;;;;;;5.03;3.00;;;6.70;99.90;;;;;;4997771;28;20691;-78
2021/01/20 01:50:56;;;;;;;8.20;3.07;;;6.60;99.90;;;;;;4996635;28;20311;-81
2021/01/20 01:53:22;;;;;;;8.63;3.10;;;6.60;99.90;;;;;;4994400;28;20220;-81
2021/01/20 01:55:48;;;;;;;5.87;2.60;;;6.50;99.90;;;;;;4993946;28;20212;-80
2021/01/20 01:58:14;;;;;;;7.67;2.90;;;6.50;99.90;;;;;;4997821;28;20263;-80
2021/01/20 02:00:40;;;;;;;6.70;3.37;;;6.50;99.90;;;;;;4998223;28;20308;-81
2021/01/20 02:03:05;;;;;;;7.10;3.23;;;6.50;99.90;;;;;;4996784;28;20208;-80
2021/01/20 02:05:31;;;;;;;5.77;2.73;;;6.50;99.90;;;;;;4997002;28;20184;-81
2021/01/20 02:07:57;;;;;;;5.73;2.60;;;6.60;99.90;;;;;;4995927;28;20176;-83
2021/01/20 02:10:22;;;;;;;6.63;2.60;;;6.60;99.90;;;;;;4995402;28;20184;-83
2021/01/20 02:12:57;;;;;;;7.93;2.90;;;6.50;99.90;;;;;;4994688;28;20184;-80
2021/01/20 02:15:43;;;;;;;7.57;3.10;;;6.50;99.90;;;;;;4995020;28;20194;-82
2021/01/20 02:18:17;;;;;;;8.07;3.13;;;6.40;99.90;;;;;;4993453;28;20195;-80
2021/01/20 02:21:05;;;;;;;6.30;3.20;;;6.40;99.90;;;;;;4994862;28;20262;-80
2021/01/20 02:23:31;;;;;;;6.30;2.87;;;6.40;99.90;;;;;;4993726;28;20239;-80
2021/01/20 02:26:09;;;;;;;5.23;2.70;;;6.40;99.90;;;;;;4994734;28;20207;-81
2021/01/20 02:28:52;;;;;;;4.63;2.80;;;6.40;99.90;;;;;;4996388;28;20180;-80
2021/01/20 02:31:20;;;;;;;5.07;3.27;;;6.50;99.90;;;;;;4995700;28;20207;-81
2021/01/20 02:33:46;;;;;;;4.87;2.90;;;6.50;99.90;;;;;;4995215;28;20296;-80
2021/01/20 02:36:12;;;;;;;5.70;3.23;;;6.50;99.90;;;;;;5011224;28;20711;-80
2021/01/20 02:38:38;;;;;;;6.67;3.43;;;6.60;99.90;;;;;;4995591;28;20200;-80
2021/01/20 02:41:04;;;;;;;8.40;3.10;;;6.60;99.90;;;;;;4995670;28;20229;-81
2021/01/20 02:43:29;;;;;;;9.53;3.30;;;6.60;99.90;;;;;;4994734;28;20234;-81
2021/01/20 02:45:55;;;;;;;5.53;3.20;;;6.60;99.90;;;;;;4994906;28;20196;-83
2021/01/20 02:48:21;;;;;;;5.00;3.07;;;6.70;99.90;;;;;;4994827;28;20548;-80
2021/01/20 02:50:46;;;;;;;5.63;3.50;;;6.70;99.90;;;;;;4995204;28;20640;-80
2021/01/20 02:53:16;;;;;;;4.97;3.40;;;6.70;99.90;;;;;;4994569;28;20184;-82
2021/01/20 02:55:46;;;;;;;5.37;3.23;;;6.70;99.90;;;;;;4994468;28;20184;-82
2021/01/20 02:58:14;;;;;;;5.87;3.43;;;6.70;99.90;;;;;;4994712;28;20655;-83
2021/01/20 03:00:39;;;;;;;6.03;3.50;;;6.70;99.90;;;;;;4994034;28;20238;-80
2021/01/20 03:03:07;;;;;;;6.77;3.37;;;6.70;99.90;;;;;;4993756;28;20456;-80
2021/01/20 03:05:33;;;;;;;6.23;3.30;;;6.80;99.90;;;;;;4994548;28;20259;-80
2021/01/20 03:07:59;;;;;;;6.97;3.70;;;6.80;99.90;;;;;;4993789;28;20183;-80
2021/01/20 03:10:24;;;;;;;5.97;3.70;;;6.90;99.90;;;;;;4994762;28;20558;-80
2021/01/20 03:12:50;;;;;;;7.93;4.03;;;6.90;99.90;;;;;;4994329;28;20180;-80
2021/01/20 03:15:39;;;;;;;5.30;3.30;;;6.90;99.90;;;;;;4994143;28;20176;-79
2021/01/20 03:18:05;;;;;;;7.80;3.87;;;6.90;99.90;;;;;;4993586;28;20207;-79
2021/01/20 03:20:31;;;;;;;6.30;3.57;;;6.90;99.90;;;;;;4994684;28;20214;-80
2021/01/20 03:22:57;;;;;;;6.30;4.00;;;6.90;99.90;;;;;;4994177;28;20667;-80
2021/01/20 03:25:23;;;;;;;7.73;3.97;;;6.90;99.90;;;;;;4992838;28;20169;-83
2021/01/20 03:27:48;;;;;;;5.83;3.43;;;7.00;99.90;;;;;;4993547;28;20710;-81
2021/01/20 03:30:14;;;;;;;5.53;3.20;;;7.00;99.90;;;;;;4994016;28;20235;-79
2021/01/20 03:32:40;;;;;;;7.27;3.37;;;7.00;99.90;;;;;;4993960;28;20180;-80
2021/01/20 03:35:06;;;;;;;6.13;3.60;;;7.00;99.90;;;;;;4995978;28;20184;-80
2021/01/20 03:37:32;;;;;;;5.53;3.67;;;7.00;99.90;;;;;;4998203;28;20208;-79
2021/01/20 03:39:57;;;;;;;5.73;3.37;;;7.10;99.90;;;;;;4998188;28;20532;-81
2021/01/20 03:42:23;;;;;;;5.13;2.93;;;7.10;99.90;;;;;;4997124;28;20204;-80
2021/01/20 03:44:48;;;;;;;7.23;3.53;;;7.20;99.90;;;;;;4996851;28;20187;-80
2021/01/20 03:47:14;;;;;;;4.67;3.30;;;7.20;99.90;;;;;;4996846;28;20196;-79
2021/01/20 03:49:39;;;;;;;5.20;3.27;;;7.30;99.90;;;;;;4998136;28;20267;-80
2021/01/20 03:52:05;;;;;;;6.30;3.10;;;7.30;99.90;;;;;;4998647;28;20188;-82
2021/01/20 03:54:30;;;;;;;5.83;2.77;;;7.30;99.90;;;;;;4997442;28;20184;-80
2021/01/20 03:56:56;;;;;;;5.93;3.70;;;7.40;99.90;;;;;;4997457;28;20200;-81
2021/01/20 03:59:21;;;;;;;7.57;3.10;;;7.40;99.90;;;;;;4998847;28;20261;-81
2021/01/20 04:01:47;;;;;;;5.53;2.83;;;7.50;99.90;;;;;;4998021;28;20180;-82
2021/01/20 04:04:12;;;;;;;4.87;3.10;;;7.50;99.90;;;;;;4997558;28;20176;-80
2021/01/20 04:06:38;;;;;;;5.10;3.03;;;7.50;99.90;;;;;;4997532;28;20619;-80
2021/01/20 04:09:05;;;;;;;5.60;2.97;;;7.50;99.90;;;;;;4998389;28;20614;-81
2021/01/20 04:11:31;;;;;;;4.80;2.27;;;7.50;99.90;;;;;;4998411;28;20305;-81
2021/01/20 04:13:57;;;;;;;3.70;2.60;;;7.50;99.90;;;;;;4998223;28;20282;-80
2021/01/20 04:16:22;;;;;;;7.90;2.80;;;7.40;99.90;;;;;;4997643;28;20216;-81
2021/01/20 04:18:48;;;;;;;3.90;2.67;;;7.40;99.90;;;;;;4998641;28;20193;-81
2021/01/20 04:21:13;;;;;;;5.87;3.00;;;7.40;99.90;;;;;;4998322;28;20203;-80
2021/01/20 04:23:39;;;;;;;4.60;2.90;;;7.40;99.90;;;;;;4997617;28;20625;-80
2021/01/20 04:26:08;;;;;;;6.70;2.77;;;7.30;99.90;;;;;;4996637;28;20224;-81
2021/01/20 04:28:33;;;;;;;4.77;2.60;;;7.40;99.90;;;;;;4997419;28;20181;-80
2021/01/20 04:30:59;;;;;;;3.90;2.70;;;7.30;99.90;;;;;;4997003;28;20192;-80
2021/01/20 04:33:25;;;;;;;5.37;2.80;;;7.30;99.90;;;;;;4997439;28;20235;-80
2021/01/20 04:35:51;;;;;;;5.57;2.57;;;7.30;99.90;;;;;;4996750;28;20200;-80
2021/01/20 04:38:16;;;;;;;5.37;2.47;;;7.30;99.90;;;;;;4996549;28;20562;-80
2021/01/20 04:40:42;;;;;;;3.77;2.20;;;7.40;99.90;;;;;;4996995;28;20635;-82
2021/01/20 04:43:07;;;;;;;1.93;1.50;;;7.40;99.90;;;;;;4996332;28;20223;-81
2021/01/20 04:45:33;;;;;;;5.13;3.00;;;7.50;99.90;;;;;;4996224;28;20169;-80
2021/01/20 04:47:59;;;;;;;3.43;2.70;;;7.50;99.90;;;;;;4995424;28;20172;-80
2021/01/20 04:50:25;;;;;;;4.87;2.27;;;7.50;99.90;;;;;;4996973;28;20219;-81
2021/01/20 04:52:50;;;;;;;4.87;2.53;;;7.50;99.90;;;;;;4997879;28;20203;-81
2021/01/20 04:55:16;;;;;;;4.00;2.60;;;7.50;99.90;;;;;;4996737;28;20600;-80
2021/01/20 04:57:41;;;;;;;3.67;2.60;;;7.40;99.90;;;;;;4996713;28;20475;-81
2021/01/20 05:00:08;;;;;;;6.27;2.90;;;7.40;99.90;;;;;;4996892;28;20270;-82
2021/01/20 05:02:34;;;;;;;4.03;2.70;;;7.30;99.90;;;;;;4993006;28;20694;-78
2021/01/20 05:05:00;;;;;;;5.03;2.80;;;7.40;99.90;;;;;;4997580;28;20200;-80
2021/01/20 05:07:27;;;;;;;5.87;3.17;;;7.40;99.90;;;;;;4996386;28;20188;-80
2021/01/20 05:09:53;;;;;;;4.17;2.60;;;7.40;99.90;;;;;;4996672;28;20177;-81
2021/01/20 05:12:43;;;;;;;4.83;2.70;;;7.40;99.90;;;;;;4996250;28;20176;-80
2021/01/20 05:15:10;;;;;;;3.33;2.53;;;7.40;99.90;;;;;;4997798;28;20178;-82
2021/01/20 05:17:36;;;;;;;3.50;2.60;;;7.40;99.90;;;;;;4982595;28;20204;-81
2021/01/20 05:20:05;;;;;;;3.57;2.67;;;7.50;99.90;;;;;;4997268;28;20266;-79
2021/01/20 05:22:31;;;;;;;4.97;2.87;;;7.40;99.90;;;;;;4998230;28;20276;-82
2021/01/20 05:25:01;;;;;;;4.33;2.40;;;7.40;99.90;;;;;;4995674;28;20251;-79
2021/01/20 05:27:27;;;;;;;4.87;2.70;;;7.50;99.90;;;;;;4995084;28;20294;-80
2021/01/20 05:30:12;;;;;;;3.87;2.50;;;7.50;99.90;;;;;;4995607;28;20194;-82
2021/01/20 05:32:37;;;;;;;4.20;2.60;;;7.70;99.90;;;;;;4996094;28;20188;-81
2021/01/20 05:35:05;;;;;;;3.43;2.30;;;7.70;99.90;;;;;;4995427;28;20243;-80
2021/01/20 05:37:30;;;;;;;3.47;2.70;;;7.80;99.90;;;;;;4995380;28;20225;-82
2021/01/20 05:40:10;;;;;;;5.80;3.03;;;7.70;99.90;;;;;;4994803;28;20180;-81
2021/01/20 05:42:52;;;;;;;4.83;2.80;;;7.80;99.90;;;;;;4994576;28;20242;-82
2021/01/20 05:45:21;;;;;;;4.30;2.70;;;7.70;99.90;;;;;;4994404;28;20261;-81
2021/01/20 05:48:00;;;;;;;3.10;2.20;;;7.70;99.90;;;;;;4994945;28;20204;-80
2021/01/20 05:50:26;;;;;;;3.43;2.60;;;7.60;99.90;;;;;;4994347;28;20181;-80
2021/01/20 05:53:08;;;;;;;4.63;2.50;;;7.60;99.90;;;;;;4978645;28;20188;-80
2021/01/20 05:55:34;;;;;;;3.93;2.57;;;7.50;99.90;;;;;;4995190;28;20161;-81
2021/01/20 05:58:01;;;;;;;3.00;2.27;;;7.50;99.90;;;;;;4995325;28;20188;-80
2021/01/20 06:00:27;;;;;;;4.27;2.57;;;7.40;99.90;;;;;;4978806;28;20185;-80
2021/01/20 06:02:53;;;;;;;2.70;2.07;;;7.40;99.90;;;;;;4977667;28;20221;-78
2021/01/20 06:05:20;;;;;;;6.53;2.63;;;7.40;99.90;;;;;;4992090;28;20173;-77
2021/01/20 06:07:45;;;;;;;3.50;2.47;;;7.40;99.90;;;;;;4991976;28;20204;-78
2021/01/20 06:10:11;;;;;;;4.73;2.77;;;7.40;99.90;;;;;;4991741;28;20694;-76
2021/01/20 06:12:36;;;;;;;3.20;2.47;;;7.40;99.90;;;;;;4991930;28;20176;-77
2021/01/20 06:15:02;;;;;;;5.13;2.63;;;7.30;99.90;;;;;;4991789;28;20271;-79
2021/01/20 06:17:34;;;;;;;5.40;3.20;;;7.40;99.90;;;;;;4975680;28;20253;-78
2021/01/20 06:20:04;;;;;;;6.07;2.87;;;7.40;99.90;;;;;;5009305;28;20677;-83
2021/01/20 06:22:31;;;;;;;4.87;3.03;;;7.30;99.90;;;;;;4994629;28;20262;-81
2021/01/20 06:24:58;;;;;;;5.70;3.40;;;7.30;99.90;;;;;;4977991;28;20267;-82
2021/01/20 06:27:24;;;;;;;6.93;3.30;;;7.30;99.90;;;;;;4976159;28;20215;-81
2021/01/20 06:30:04;;;;;;;5.93;3.33;;;7.20;99.90;;;;;;4992199;28;20268;-81
2021/01/20 06:32:29;;;;;;;4.13;2.93;;;7.30;99.90;;;;;;4992237;28;20185;-81
2021/01/20 06:34:55;;;;;;;6.43;3.00;;;7.30;99.90;;;;;;4977378;28;20182;-83
2021/01/20 06:37:37;;;;;;;3.67;2.70;;;7.30;99.90;;;;;;4992431;28;20214;-83
2021/01/20 06:40:04;;;;;;;3.67;2.63;;;7.40;99.90;;;;;;4963961;28;20189;-77
2021/01/20 06:42:33;;;;;;;4.07;2.80;;;;;;;;;;4986166;28;20228;-78
2021/01/20 06:45:34;;;;;;;3.77;2.73;;;7.50;99.90;;;;;;4992514;28;20264;-78
2021/01/20 06:48:00;;;;;;;3.27;2.37;;;7.50;99.90;;;;;;4935733;29;20559;-82
2021/01/20 06:50:29;;;;;;;3.10;2.57;;;7.50;99.90;;;;;;4970971;28;20188;-82
2021/01/20 06:53:13;;;;;;;4.00;2.47;;;7.50;99.90;;;;;;4973875;28;20185;-81
2021/01/20 06:55:39;;;;;;;3.70;2.40;;;7.50;99.90;;;;;;4962304;28;20180;-80
2021/01/20 06:58:25;;;;;;;5.03;2.43;;;7.50;99.90;;;;;;4966408;28;20754;-80
2021/01/20 07:01:00;;;;;;;4.20;2.40;;;7.60;99.90;;;;;;4964358;28;20219;-77
2021/01/20 07:03:45;;;;;;;3.80;2.20;;;7.60;99.90;;;;;;4992409;28;20209;-78
2021/01/20 07:06:33;;;;;;;2.70;2.10;;;7.50;99.90;;;;;;4965398;28;20293;-79
2021/01/20 07:08:58;;;;;;;3.67;2.60;;;7.60;99.90;;;;;;4991993;28;20604;-78
2021/01/20 07:11:24;;;;;;;3.00;2.30;;;7.60;99.90;;;;;;4997568;28;20194;-81
2021/01/20 07:13:49;;;;;;;3.00;2.20;;;7.70;99.90;;;;;;4996296;28;20233;-78
2021/01/20 07:16:16;;;;;;;4.77;2.33;;;7.80;99.90;;;;;;4977996;28;20201;-78
2021/01/20 07:18:44;;;;;;;2.73;1.93;;;7.80;99.90;;;;;;4978378;28;20284;-79
2021/01/20 07:21:10;;;;;;;3.03;1.97;;;7.80;99.90;;;;;;4978775;28;20221;-79
2021/01/20 07:23:35;;;;;;;2.57;2.03;;;7.80;99.90;;;;;;4995197;28;20368;-78
2021/01/20 07:26:05;;;;;;;3.57;2.40;;;7.90;99.90;;;;;;4978253;28;20217;-80
2021/01/20 07:28:31;;;;;;;3.97;2.20;;;7.90;99.90;;;;;;4995737;28;20180;-76
2021/01/20 07:31:03;;;;;;;3.80;2.20;;;7.90;99.90;;;;;;4994756;28;20173;-76
2021/01/20 07:33:29;;;;;;;2.57;2.07;;;7.90;99.90;;;;;;4994608;28;20208;-77
2021/01/20 07:35:54;;;;;;;3.20;2.30;;;7.90;99.90;;;;;;4994400;28;20254;-77
2021/01/20 07:38:20;;;;;;;3.37;2.50;;;8.00;99.90;;;;;;4994545;28;20183;-79
2021/01/20 07:40:45;;;;;;;3.57;2.27;;;8.00;99.90;;;;;;4978373;28;20188;-79
2021/01/20 07:43:23;;;;;;;3.60;2.30;;;8.00;99.90;;;;;;4994548;28;20215;-78
2021/01/20 07:45:49;;;;;;;3.17;2.40;;;8.00;99.90;;;;;;4994855;28;20204;-79
2021/01/20 07:48:17;;;;;;;3.00;2.20;;;8.10;99.90;;;;;;4995395;28;20177;-79
2021/01/20 07:50:47;;;;;;;2.67;1.90;;;8.10;99.90;;;;;;4978653;28;20183;-80
2021/01/20 07:53:14;;;;;;;3.13;2.17;;;8.20;99.90;;;;;;4978318;28;20186;-79
2021/01/20 07:55:40;;;;;;;2.67;1.97;;;8.30;99.90;;;;;;4994410;28;20173;-77
2021/01/20 07:58:05;;;;;;;2.37;1.70;;;8.30;99.90;;;;;;4994210;28;20179;-77
2021/01/20 08:00:40;;;;;;;2.37;1.70;;;8.30;99.90;;;;;;4990783;28;20284;-78
2021/01/20 08:03:05;;;;;;;2.60;1.30;;;8.40;99.90;;;;;;4990598;28;20203;-77
2021/01/20 08:05:31;;;;;;;2.23;1.67;;;8.40;99.90;;;;;;4993776;28;20242;-76
2021/01/20 08:08:11;;;;;;;2.57;1.80;;;8.50;99.90;;;;;;4994345;28;20181;-79
2021/01/20 08:10:37;;;;;;;3.03;2.20;;;8.50;99.90;;;;;;4996109;28;20171;-80
2021/01/20 08:13:02;;;;;;;2.17;1.57;;;8.50;99.90;;;;;;4996300;28;20535;-81
2021/01/20 08:15:30;;;;;;;2.63;1.60;;;8.60;99.90;;;;;;4995598;28;20212;-79
2021/01/20 08:17:56;;;;;;;3.83;1.70;;;8.60;99.90;;;;;;4995934;28;20663;-81
2021/01/20 08:20:22;;;;;;;4.03;2.07;;;8.60;99.90;;;;;;4994517;28;20184;-82
2021/01/20 08:22:47;;;;;;;3.07;2.00;;;8.60;99.90;;;;;;4976727;28;20222;-82
2021/01/20 08:25:20;;;;;;;2.93;1.60;;;8.70;99.90;;;;;;4978098;28;20185;-80
2021/01/20 08:27:46;;;;;;;2.77;1.83;;;8.70;99.90;;;;;;4988920;28;20208;-83
2021/01/20 08:30:13;;;;;;;4.07;1.70;;;8.70;99.90;;;;;;4973320;28;20188;-81
2021/01/20 08:32:54;;;;;;;2.93;1.70;;;8.70;99.90;;;;;;4977237;28;20185;-81
2021/01/20 08:35:33;;;;;;;3.40;1.83;;;8.80;99.90;;;;;;4963717;28;20187;-80
2021/01/20 08:37:59;;;;;;;2.97;1.60;;;8.70;99.90;;;;;;4995546;28;20195;-77
2021/01/20 08:40:24;;;;;;;1.57;1.43;;;8.80;99.90;;;;;;5000216;28;20183;-77
2021/01/20 08:42:50;;;;;;;2.23;1.40;;;8.90;99.90;;;;;;4994870;28;20204;-76
2021/01/20 08:45:21;;;;;;;2.57;1.67;;;8.90;99.90;;;;;;4993689;28;20172;-76
2021/01/20 08:47:50;;;;;;;3.17;1.57;;;8.90;99.90;;;;;;5009558;28;20582;-76
2021/01/20 08:50:20;;;;;;;1.73;1.17;;;8.90;99.90;;;;;;5009136;28;20186;-76
2021/01/20 08:52:48;;;;;;;3.87;1.33;;;9.10;99.90;;;;;;4993265;28;20215;-75
2021/01/20 08:55:24;;;;;;;2.67;1.40;;;9.00;99.90;;;;;;4994515;28;20180;-86
2021/01/20 08:58:15;;;;;;;2.40;1.30;;;9.00;99.90;;;;;;4995820;28;20215;-82
2021/01/20 09:00:41;;;;;;;4.30;1.80;;;9.00;99.90;;;;;;4984558;28;20183;-82
2021/01/20 09:03:13;;;;;;;1.87;1.47;;;9.00;99.90;;;;;;4971722;28;20264;-83
2021/01/20 09:05:39;;;;;;;2.30;1.57;;;9.00;99.90;;;;;;4996861;28;20175;-82
2021/01/20 09:08:05;;;;;;;3.43;1.60;;;9.00;99.90;;;;;;4995968;28;20264;-82
2021/01/20 09:10:30;;;;;;;2.63;1.60;;;9.10;99.90;;;;;;4995940;28;20591;-81
2021/01/20 09:12:56;;;;;;;3.50;1.97;;;9.00;99.90;;;;;;4995786;28;20176;-81
2021/01/20 09:15:21;;;;;;;3.43;1.67;;;9.10;99.90;;;;;;4996044;28;20315;-81
2021/01/20 09:17:47;;;;;;;3.13;1.53;;;9.00;99.90;;;;;;4979338;28;20292;-81
2021/01/20 09:20:13;;;;;;;2.83;1.67;;;8.90;99.90;;;;;;4995892;28;20184;-79
2021/01/20 09:22:39;;;;;;;1.80;1.27;;;8.90;99.90;;;;;;4978316;28;20881;-80
2021/01/20 09:25:05;;;;;;;2.83;1.80;;;8.90;99.90;;;;;;4978508;28;20177;-79
2021/01/20 09:27:30;;;;;;;3.07;1.80;;;8.90;99.90;;;;;;4995812;28;20218;-81
2021/01/20 09:29:56;;;;;;;1.67;1.13;;;8.90;99.90;;;;;;4993800;28;20171;-79
2021/01/20 09:32:21;;;;;;;2.63;1.80;;;8.90;99.90;;;;;;5009423;28;20180;-80
2021/01/20 09:34:47;;;;;;;3.07;1.60;;;8.90;99.90;;;;;;4993570;28;20196;-82
2021/01/20 09:37:12;;;;;;;2.07;1.50;;;9.00;99.90;;;;;;4994146;28;20331;-83
2021/01/20 09:39:38;;;;;;;1.57;1.40;;;9.10;99.90;;;;;;4994096;28;20242;-83
2021/01/20 09:42:03;;;;;;;3.33;1.37;;;9.20;99.90;;;;;;4977166;28;20314;-83
2021/01/20 09:44:29;;;;;;;2.00;1.50;;;9.10;99.90;;;;;;4993425;28;20181;-81
2021/01/20 09:46:54;;;;;;;2.23;1.70;;;9.10;99.90;;;;;;4976982;28;20189;-82
2021/01/20 09:49:20;;;;;;;4.33;1.60;;;9.10;99.90;;;;;;4994451;28;20179;-82
2021/01/20 09:51:45;;;;;;;2.27;1.70;;;9.20;99.90;;;;;;4993868;28;20177;-83
2021/01/20 09:54:11;;;;;;;3.23;1.73;;;9.20;99.90;;;;;;4993402;28;20187;-82
2021/01/20 09:56:37;;;;;;;2.03;1.57;;;9.20;99.90;;;;;;4976212;28;20233;-77
2021/01/20 09:59:02;;;;;;;2.80;1.70;;;9.40;99.90;;;;;;4992442;28;20180;-82
2021/01/20 10:01:28;;;;;;;2.87;1.70;;;9.30;99.90;;;;;;4992233;28;20570;-82
2021/01/20 10:03:54;;;;;;;2.40;1.70;;;9.40;99.90;;;;;;4975739;28;20211;-82
2021/01/20 10:06:20;;;;;;;1.50;1.37;;;9.50;99.90;;;;;;4992352;28;20196;-82
2021/01/20 10:08:46;;;;;;;2.27;1.80;;;9.50;99.90;;;;;;4992287;28;20190;-82
2021/01/20 10:11:11;;;;;;;2.27;1.77;;;9.50;99.90;;;;;;4991379;28;20221;-82
2021/01/20 10:13:37;;;;;;;3.47;1.90;;;9.60;99.90;;;;;;4983683;28;20185;-82
2021/01/20 10:16:03;;;;;;;3.10;1.50;;;9.60;99.90;;;;;;4971135;28;20258;-78
2021/01/20 10:18:28;;;;;;;3.33;1.90;;;9.60;99.90;;;;;;4990762;28;20620;-80
2021/01/20 10:20:54;;;;;;;3.60;2.00;;;9.60;99.90;;;;;;4971193;28;20181;-82
2021/01/20 10:23:19;;;;;;;2.63;1.70;;;9.60;99.90;;;;;;4986020;28;20293;-83
2021/01/20 10:25:46;;;;;;;2.57;1.80;;;9.70;99.90;;;;;;4991822;28;20298;-83
2021/01/20 10:28:12;;;;;;;6.93;2.27;;;9.70;99.90;;;;;;4973488;28;20177;-83
2021/01/20 10:30:38;;;;;;;2.77;1.90;;;9.70;99.90;;;;;;4991629;28;20181;-82
2021/01/20 10:33:03;;;;;;;3.50;1.87;;;9.70;99.90;;;;;;4991642;28;20250;-82
2021/01/20 10:35:29;;;;;;;3.10;2.00;;;9.80;99.90;;;;;;4991444;28;20535;-82
2021/01/20 10:37:57;;;;;;;5.03;2.67;;;9.90;99.90;;;;;;4991682;28;20326;-82
2021/01/20 10:40:23;;;;;;;4.30;2.30;;;9.80;99.90;;;;;;4975723;28;20227;-82
2021/01/20 10:42:49;;;;;;;4.30;2.20;;;9.90;99.90;;;;;;4992072;28;20212;-82
2021/01/20 10:45:14;;;;;;;4.00;2.30;;;9.80;99.90;;;;;;4993942;28;20175;-81
2021/01/20 10:47:40;;;;;;;2.93;1.87;;;9.90;99.90;;;;;;4995513;28;20243;-82
2021/01/20 10:50:06;;;;;;;6.87;2.03;;;9.90;99.90;;;;;;4996543;28;20175;-83
2021/01/20 10:52:31;;;;;;;3.57;1.90;;;10.00;99.90;;;;;;4997114;28;20190;-83
2021/01/20 10:54:57;;;;;;;3.90;1.87;;;9.90;99.90;;;;;;4995371;28;20185;-81
2021/01/20 10:57:23;;;;;;;2.60;1.80;;;10.00;99.90;;;;;;4995634;28;20576;-81
2021/01/20 10:59:48;;;;;;;2.80;1.97;;;10.10;99.90;;;;;;4979186;28;20180;-82
2021/01/20 11:02:14;;;;;;;3.40;1.90;;;10.10;99.90;;;;;;4995507;28;20660;-81
2021/01/20 11:04:39;;;;;;;4.53;2.10;;;10.10;99.90;;;;;;4979734;28;20648;-82
2021/01/20 11:07:05;;;;;;;3.47;2.07;;;10.30;99.90;;;;;;4995692;28;20675;-80
2021/01/20 11:09:31;;;;;;;2.27;1.73;;;10.30;99.90;;;;;;4995720;28;20180;-81
2021/01/20 11:11:57;;;;;;;3.73;1.80;;;10.40;99.90;;;;;;4995073;28;20175;-82
2021/01/20 11:14:24;;;;;;;3.73;2.10;;;10.40;99.90;;;;;;4987367;28;20193;-82
2021/01/20 11:16:53;;;;;;;2.43;1.83;;;10.40;99.90;;;;;;4978622;28;20266;-80
2021/01/20 11:19:19;;;;;;;2.80;1.80;;;10.40;99.90;;;;;;4995258;28;20172;-78
2021/01/20 11:21:44;;;;;;;3.10;2.00;;;10.40;99.90;;;;;;4994461;28;20551;-79
2021/01/20 11:24:10;;;;;;;2.60;1.83;;;10.40;99.90;;;;;;4994416;28;20211;-81
2021/01/20 11:26:35;;;;;;;3.40;1.70;;;10.40;99.90;;;;;;4991873;28;20297;-80
2021/01/20 11:29:02;;;;;;;3.40;2.07;;;;;;;;;;4995388;28;20204;-77
2021/01/20 11:31:28;;;;;;;2.67;2.10;;;;;;;;;;4995922;28;20184;-81
2021/01/20 11:33:54;;;;;;;4.50;1.87;;;10.20;99.90;;;;;;4996088;28;20298;-79
2021/01/20 11:36:20;;;;;;;2.50;1.83;;;10.30;99.90;;;;;;4979667;28;20210;-82
2021/01/20 11:38:45;;;;;;;2.83;2.10;;;10.20;99.90;;;;;;4996419;28;20178;-82
2021/01/20 11:41:11;;;;;;;3.30;1.97;;;;;;;;;;5012563;28;20197;-81
2021/01/20 11:43:37;;;;;;;4.03;2.10;;;;;;;;;;5012472;28;20208;-80
2021/01/20 11:46:03;;;;;;;3.87;2.00;;;10.20;99.90;;;;;;4995785;28;20198;-81
2021/01/20 11:48:29;;;;;;;2.83;2.00;;;10.40;99.90;;;;;;4995461;28;20198;-81
2021/01/20 11:50:54;;;;;;;3.87;2.20;;;10.40;99.90;;;;;;5008573;28;20678;-82
2021/01/20 11:53:20;;;;;;;2.77;1.60;;;10.50;99.90;;;;;;4981469;28;20664;-82
2021/01/20 11:55:46;;;;;;;3.43;1.97;;;10.60;99.90;;;;;;4985227;28;20634;-77
2021/01/20 11:58:12;;;;;;;2.50;1.70;;;10.60;99.90;;;;;;4999857;28;20187;-80
2021/01/20 12:00:37;;;;;;;2.57;1.90;;;10.60;99.90;;;;;;4998937;28;20223;-82
2021/01/20 12:03:03;;;;;;;4.33;2.20;;;10.70;99.90;;;;;;4972444;28;20209;-84
2021/01/20 12:05:28;;;;;;;2.10;1.67;;;10.70;99.90;;;;;;4993530;28;20684;-84
2021/01/20 12:07:54;;;;;;;2.80;1.70;;;10.60;99.90;;;;;;4994632;28;20175;-83
2021/01/20 12:10:19;;;;;;;2.83;1.70;;;10.60;99.90;;;;;;5008255;28;20184;-80
2021/01/20 12:12:45;;;;;;;3.67;1.90;;;10.60;99.90;;;;;;4991524;28;20300;-83
2021/01/20 12:15:11;;;;;;;2.20;1.80;;;10.70;99.90;;;;;;4980888;28;20211;-83
2021/01/20 12:17:36;;;;;;;3.30;2.13;;;10.80;99.90;;;;;;4996272;28;20203;-83
2021/01/20 12:20:06;;;;;;;2.63;2.07;;;10.80;99.90;;;;;;4979080;28;20194;-88
2021/01/20 12:22:32;;;;;;;4.20;1.80;;;10.60;99.90;;;;;;4994647;28;20234;-84
2021/01/20 12:24:57;;;;;;;3.27;1.70;;;10.60;99.90;;;;;;4994908;28;20525;-83
2021/01/20 12:27:23;;;;;;;2.13;1.73;;;10.70;99.90;;;;;;4993546;28;20215;-83
2021/01/20 12:29:48;;;;;;;2.87;2.00;;;10.60;99.90;;;;;;4993725;28;20188;-84
2021/01/20 12:32:14;;;;;;;2.80;1.80;;;10.60;99.90;;;;;;4994209;28;20251;-84
2021/01/20 12:34:39;;;;;;;3.80;2.20;;;10.60;99.90;;;;;;4978386;28;20187;-82
2021/01/20 12:37:05;;;;;;;3.87;2.47;;;10.50;99.90;;;;;;4978292;28;20211;-84
2021/01/20 12:39:31;;;;;;;4.33;2.17;;;10.50;99.90;;;;;;4994193;28;20259;-84
2021/01/20 12:41:56;;;;;;;4.07;2.63;;;10.50;99.90;;;;;;4978225;28;20183;-82
2021/01/20 12:44:22;;;;;;;3.70;2.50;;;10.60;99.90;;;;;;4978791;28;20206;-78
2021/01/20 12:46:47;;;;;;;2.57;1.87;;;10.50;99.90;;;;;;5010701;28;20195;-80
2021/01/20 12:49:13;;;;;;;4.10;2.30;;;10.60;99.90;;;;;;4979422;28;20207;-82
2021/01/20 12:51:38;;;;;;;2.90;2.20;;;10.60;99.90;;;;;;4977872;28;20184;-83
2021/01/20 12:54:04;;;;;;;3.07;2.10;;;10.60;99.90;;;;;;4991884;28;20204;-83
2021/01/20 12:56:30;;;;;;;3.03;1.90;;;10.60;99.90;;;;;;4991873;28;20199;-81
2021/01/20 12:58:56;;;;;;;5.00;2.27;;;10.70;99.90;;;;;;4976664;28;20180;-82